Time;durP1;ratioP1;P1;durP2;ratioP2;P2;SDS_P1;SDS_P2;PMS_P1;PMS_P2;Temp;Humidity;BMP_temperature;BMP_pressure;BME280_temperature;BME280_humidity;BME280_pressure;Samples;Min_cycle;Max_cycle;Signal;HPM_P1;HPM_P2
2021/08/26 00:06:58;;;;;;;12.15;2.65;;;19.30;81.30;;;;;;4960396;28;20130;-64
2021/08/26 00:09:25;;;;;;;11.27;2.28;;;19.30;79.50;;;;;;4961473;28;20517;-65
2021/08/26 00:11:53;;;;;;;10.52;2.85;;;19.20;79.00;;;;;;4943746;28;20820;-65
2021/08/26 00:14:20;;;;;;;14.00;2.65;;;19.20;78.40;;;;;;4943960;28;20046;-65
2021/08/26 00:16:46;;;;;;;10.52;1.83;;;19.20;78.60;;;;;;4959818;28;20399;-65
2021/08/26 00:19:12;;;;;;;8.95;2.83;;;19.20;77.50;;;;;;4960286;28;20049;-65
2021/08/26 00:21:39;;;;;;;6.78;2.53;;;19.00;79.10;;;;;;4960014;28;20047;-65
2021/08/26 00:24:06;;;;;;;8.45;2.20;;;19.00;81.60;;;;;;4961503;28;20043;-65
2021/08/26 00:26:32;;;;;;;9.52;1.95;;;19.10;80.70;;;;;;4943293;28;20510;-65
2021/08/26 00:29:03;;;;;;;6.50;2.13;;;19.20;78.40;;;;;;4943970;28;20062;-65
2021/08/26 00:31:29;;;;;;;12.80;2.08;;;19.10;79.70;;;;;;4959765;28;20090;-66
2021/08/26 00:33:54;;;;;;;8.23;1.83;;;19.10;78.80;;;;;;4946806;28;20066;-65
2021/08/26 00:36:21;;;;;;;8.43;2.25;;;19.10;79.50;;;;;;4957509;28;20070;-63
2021/08/26 00:38:47;;;;;;;9.13;2.15;;;19.10;79.70;;;;;;4959437;28;20062;-64
2021/08/26 00:41:17;;;;;;;8.48;1.90;;;19.20;80.30;;;;;;4961044;28;20062;-64
2021/08/26 00:43:44;;;;;;;8.90;2.42;;;19.20;78.70;;;;;;4961258;28;20039;-64
2021/08/26 00:46:12;;;;;;;6.18;2.10;;;19.20;80.70;;;;;;4943594;28;20050;-64
2021/08/26 00:48:40;;;;;;;7.60;1.92;;;19.30;79.20;;;;;;4960537;28;20138;-65
2021/08/26 00:51:05;;;;;;;6.70;1.73;;;19.30;81.20;;;;;;4944469;28;20496;-65
2021/08/26 00:53:31;;;;;;;5.78;1.90;;;19.40;81.10;;;;;;4960041;28;20038;-66
2021/08/26 00:55:57;;;;;;;4.50;1.50;;;19.50;81.70;;;;;;4960763;28;20043;-64
2021/08/26 00:58:24;;;;;;;8.98;1.77;;;19.60;81.40;;;;;;4959466;28;20047;-64
2021/08/26 01:00:54;;;;;;;7.70;1.98;;;19.80;79.70;;;;;;4959332;28;20042;-64
2021/08/26 01:03:27;;;;;;;8.80;2.20;;;19.80;79.30;;;;;;4959078;28;20487;-64
2021/08/26 01:05:55;;;;;;;6.85;2.25;;;19.90;80.50;;;;;;4960848;28;20057;-64
2021/08/26 01:08:34;;;;;;;6.30;1.65;;;19.90;79.30;;;;;;4959450;28;20042;-64
2021/08/26 01:11:02;;;;;;;8.25;2.70;;;19.90;79.50;;;;;;4959709;28;20032;-64
2021/08/26 01:13:33;;;;;;;8.30;1.75;;;19.80;77.60;;;;;;4944472;28;20081;-64
2021/08/26 01:16:09;;;;;;;5.20;1.65;;;19.70;77.60;;;;;;4960865;28;20537;-65
2021/08/26 01:18:39;;;;;;;13.88;2.28;;;19.60;79.30;;;;;;4959595;28;20138;-64
2021/08/26 01:21:09;;;;;;;9.05;1.95;;;19.60;78.00;;;;;;4959986;28;20419;-64
2021/08/26 01:23:39;;;;;;;7.00;1.60;;;19.50;79.30;;;;;;4958757;28;20042;-65
2021/08/26 01:26:09;;;;;;;6.93;2.63;;;19.50;77.40;;;;;;4960070;28;20070;-64
2021/08/26 01:28:42;;;;;;;6.05;2.05;;;19.50;79.10;;;;;;4959185;28;20973;-65
2021/08/26 01:31:08;;;;;;;5.32;1.60;;;19.40;80.40;;;;;;4943417;28;20821;-65
2021/08/26 01:33:35;;;;;;;5.95;1.30;;;19.50;80.90;;;;;;4946767;28;20042;-64
2021/08/26 01:36:02;;;;;;;8.13;2.25;;;19.50;80.40;;;;;;4959849;28;20691;-64
2021/08/26 01:38:28;;;;;;;7.25;1.75;;;19.60;79.10;;;;;;4959665;28;20467;-65
2021/08/26 01:40:54;;;;;;;3.15;1.35;;;19.60;78.20;;;;;;4942211;28;20054;-65
2021/08/26 01:43:21;;;;;;;7.85;1.63;;;19.60;80.10;;;;;;4946527;28;20077;-65
2021/08/26 01:45:48;;;;;;;7.22;1.48;;;19.70;79.70;;;;;;4960702;28;20779;-65
2021/08/26 01:48:17;;;;;;;7.60;1.52;;;19.70;79.50;;;;;;4958792;28;20081;-65
2021/08/26 01:50:44;;;;;;;12.55;2.67;;;19.80;78.30;;;;;;4958866;28;20046;-66
2021/08/26 01:53:10;;;;;;;6.05;1.77;;;19.80;78.00;;;;;;4959263;28;20383;-65
2021/08/26 01:55:37;;;;;;;7.47;1.88;;;19.80;79.10;;;;;;4958897;28;22317;-64
2021/08/26 01:58:02;;;;;;;3.10;1.30;;;19.80;79.70;;;;;;4941930;28;20055;-65
2021/08/26 02:00:28;;;;;;;5.97;2.15;;;19.80;80.40;;;;;;4958401;28;20508;-65
2021/08/26 02:02:54;;;;;;;4.15;1.30;;;19.90;80.40;;;;;;4958054;28;20050;-64
2021/08/26 02:05:19;;;;;;;4.65;1.02;;;19.90;80.40;;;;;;4959322;28;20464;-64
2021/08/26 02:07:47;;;;;;;9.95;1.98;;;20.00;80.30;;;;;;4959682;28;20054;-64
2021/08/26 02:10:13;;;;;;;5.05;1.20;;;20.10;79.10;;;;;;4956949;28;20114;-64
2021/08/26 02:12:39;;;;;;;9.55;2.28;;;20.10;79.60;;;;;;4941177;28;20609;-64
2021/08/26 02:15:05;;;;;;;10.80;1.90;;;20.00;78.40;;;;;;4958783;28;20038;-62
2021/08/26 02:17:31;;;;;;;10.30;2.17;;;19.90;78.00;;;;;;4959114;28;20046;-62
2021/08/26 02:19:57;;;;;;;10.10;2.30;;;19.80;78.30;;;;;;4942130;28;20081;-62
2021/08/26 02:22:22;;;;;;;6.00;2.10;;;19.70;77.50;;;;;;4945363;28;20049;-62
2021/08/26 02:24:48;;;;;;;6.30;1.55;;;19.60;79.70;;;;;;4957026;28;20108;-62
2021/08/26 02:27:14;;;;;;;9.00;2.40;;;19.70;80.10;;;;;;4959264;28;20507;-62
2021/08/26 02:29:39;;;;;;;13.98;2.38;;;19.70;79.10;;;;;;4939353;28;20557;-62
2021/08/26 02:32:05;;;;;;;4.38;1.58;;;19.80;78.30;;;;;;4957531;28;20036;-62
2021/08/26 02:34:31;;;;;;;9.52;2.45;;;19.80;79.10;;;;;;4958243;28;20054;-62
2021/08/26 02:36:57;;;;;;;5.95;1.55;;;19.80;79.00;;;;;;4962754;28;20070;-62
2021/08/26 02:39:23;;;;;;;10.95;2.35;;;19.80;80.00;;;;;;4962393;28;20095;-62
2021/08/26 02:41:49;;;;;;;10.05;2.45;;;19.70;79.50;;;;;;4962127;28;20042;-62
2021/08/26 02:44:15;;;;;;;8.82;1.77;;;19.70;80.30;;;;;;4942857;28;20035;-62
2021/08/26 02:46:41;;;;;;;14.88;3.78;;;19.70;80.60;;;;;;4963055;28;20053;-61
2021/08/26 02:49:07;;;;;;;6.25;1.50;;;19.60;79.30;;;;;;4962175;28;20117;-62
2021/08/26 02:51:32;;;;;;;16.70;2.85;;;19.60;80.00;;;;;;4950018;28;20451;-62
2021/08/26 02:53:58;;;;;;;13.20;2.25;;;19.50;79.70;;;;;;4945067;28;20049;-62
2021/08/26 02:56:24;;;;;;;7.13;1.58;;;19.50;79.30;;;;;;4949840;28;20066;-62
2021/08/26 02:58:50;;;;;;;8.63;2.00;;;19.50;81.10;;;;;;4949157;28;20117;-62
2021/08/26 03:01:15;;;;;;;7.53;1.70;;;19.50;81.40;;;;;;4949696;28;20098;-62
2021/08/26 03:03:41;;;;;;;9.30;2.35;;;19.70;81.00;;;;;;4944495;28;20042;-62
2021/08/26 03:06:07;;;;;;;7.53;1.85;;;19.60;80.70;;;;;;4948890;28;20046;-62
2021/08/26 03:08:33;;;;;;;8.38;2.20;;;19.70;81.00;;;;;;4962024;28;20043;-62
2021/08/26 03:11:00;;;;;;;7.45;2.35;;;19.80;81.10;;;;;;4945130;28;20049;-62
2021/08/26 03:13:26;;;;;;;7.47;1.95;;;19.90;80.80;;;;;;4945100;28;20501;-62
2021/08/26 03:15:51;;;;;;;5.78;1.88;;;20.00;80.40;;;;;;4943895;28;20143;-62
2021/08/26 03:18:17;;;;;;;9.00;2.30;;;20.10;80.30;;;;;;4949243;28;20141;-62
2021/08/26 03:20:43;;;;;;;7.32;2.35;;;20.10;80.30;;;;;;4949247;28;20045;-62
2021/08/26 03:23:08;;;;;;;6.15;1.83;;;20.10;80.40;;;;;;4960061;28;20039;-61
2021/08/26 03:25:35;;;;;;;6.47;1.90;;;20.20;80.40;;;;;;4944060;28;20396;-61
2021/08/26 03:28:01;;;;;;;6.60;2.33;;;20.20;80.20;;;;;;4961377;28;20046;-62
2021/08/26 03:30:26;;;;;;;10.40;2.70;;;20.20;80.30;;;;;;4961318;28;20390;-62
2021/08/26 03:32:52;;;;;;;13.07;2.88;;;20.30;80.10;;;;;;4960468;28;20039;-61
2021/08/26 03:35:18;;;;;;;8.52;2.05;;;20.30;79.90;;;;;;4962306;28;20051;-62
2021/08/26 03:37:44;;;;;;;6.00;1.90;;;20.40;79.90;;;;;;4942595;28;20043;-61
2021/08/26 03:40:11;;;;;;;9.20;2.40;;;20.40;79.80;;;;;;4943799;28;20101;-64
2021/08/26 03:42:37;;;;;;;7.03;1.95;;;20.40;79.80;;;;;;4929014;28;20062;-64
2021/08/26 03:45:03;;;;;;;11.38;2.88;;;20.40;79.80;;;;;;4961647;28;20058;-64
2021/08/26 03:47:29;;;;;;;12.75;3.45;;;20.30;79.20;;;;;;4946264;28;20106;-64
2021/08/26 03:49:55;;;;;;;19.35;3.53;;;20.20;78.80;;;;;;4962207;28;20042;-64
2021/08/26 03:52:20;;;;;;;9.82;2.55;;;20.00;77.70;;;;;;4960911;28;20121;-64
2021/08/26 03:54:46;;;;;;;10.75;2.35;;;19.90;79.60;;;;;;4962011;28;20066;-64
2021/08/26 03:57:12;;;;;;;8.90;1.92;;;19.90;81.00;;;;;;4946385;28;20039;-64
2021/08/26 03:59:37;;;;;;;10.27;2.72;;;19.90;81.20;;;;;;4961140;28;20043;-64
2021/08/26 04:02:03;;;;;;;8.70;2.53;;;19.90;80.90;;;;;;4962148;28;20038;-64
2021/08/26 04:04:29;;;;;;;11.18;2.50;;;20.00;80.60;;;;;;4962307;28;20492;-64
2021/08/26 04:06:54;;;;;;;9.65;2.55;;;20.00;80.40;;;;;;4959420;28;20432;-64
2021/08/26 04:09:20;;;;;;;11.95;2.83;;;20.00;80.10;;;;;;4932080;28;20046;-64
2021/08/26 04:11:46;;;;;;;16.17;2.47;;;19.90;80.50;;;;;;4961076;28;21047;-64
2021/08/26 04:14:12;;;;;;;19.90;4.43;;;19.80;80.40;;;;;;4943260;28;20038;-64
2021/08/26 04:16:37;;;;;;;20.42;4.78;;;19.70;79.30;;;;;;4961287;28;20035;-64
2021/08/26 04:19:03;;;;;;;22.80;5.90;;;19.60;79.10;;;;;;4961192;28;20061;-65
2021/08/26 04:21:29;;;;;;;16.05;3.47;;;19.40;79.10;;;;;;4943502;28;20047;-65
2021/08/26 04:23:54;;;;;;;11.80;2.92;;;19.20;80.10;;;;;;4959338;28;20035;-65
2021/08/26 04:26:20;;;;;;;20.70;4.70;;;19.20;81.50;;;;;;4946075;28;20042;-65
2021/08/26 04:28:45;;;;;;;28.52;5.07;;;19.20;80.90;;;;;;4947192;28;20118;-65
2021/08/26 04:31:11;;;;;;;23.05;5.68;;;19.00;80.00;;;;;;4947457;28;20518;-65
2021/08/26 04:33:37;;;;;;;16.88;4.65;;;18.90;80.20;;;;;;4942183;28;20058;-66
2021/08/26 04:36:03;;;;;;;25.67;5.20;;;18.80;81.10;;;;;;4959100;28;20050;-66
2021/08/26 04:38:28;;;;;;;22.75;4.80;;;18.70;81.40;;;;;;4959935;28;20086;-66
2021/08/26 04:40:54;;;;;;;24.63;5.00;;;18.70;81.10;;;;;;4960157;28;20062;-66
2021/08/26 04:43:20;;;;;;;19.17;3.70;;;18.70;81.70;;;;;;4960116;28;20047;-65
2021/08/26 04:45:46;;;;;;;22.83;4.53;;;18.70;81.60;;;;;;4961179;28;20129;-65
2021/08/26 04:48:11;;;;;;;14.90;3.40;;;18.80;81.80;;;;;;4959484;28;20047;-65
2021/08/26 04:50:37;;;;;;;18.83;4.65;;;18.70;82.00;;;;;;4960856;28;20038;-66
2021/08/26 04:53:03;;;;;;;21.88;4.85;;;18.60;82.80;;;;;;4926773;28;20070;-64
2021/08/26 04:55:28;;;;;;;11.82;3.38;;;18.70;83.50;;;;;;4943896;28;20046;-64
2021/08/26 04:57:54;;;;;;;14.55;4.15;;;18.70;83.60;;;;;;4960086;28;20042;-65
2021/08/26 05:00:20;;;;;;;16.08;4.78;;;18.70;84.00;;;;;;4960413;28;20042;-64
2021/08/26 05:02:46;;;;;;;11.63;3.00;;;18.70;83.90;;;;;;4960257;28;20146;-65
2021/08/26 05:05:12;;;;;;;8.00;2.50;;;18.80;84.50;;;;;;4960887;28;20047;-64
2021/08/26 05:07:37;;;;;;;12.50;2.92;;;19.00;84.80;;;;;;4959917;28;20154;-64
2021/08/26 05:10:04;;;;;;;9.18;2.80;;;19.20;84.70;;;;;;4960220;28;20736;-64
2021/08/26 05:12:31;;;;;;;9.27;2.67;;;19.40;84.10;;;;;;4960357;28;20050;-64
2021/08/26 05:14:57;;;;;;;14.18;3.53;;;19.50;83.80;;;;;;4960620;28;20035;-64
2021/08/26 05:17:22;;;;;;;11.30;2.88;;;19.60;82.00;;;;;;4960207;28;20103;-65
2021/08/26 05:19:48;;;;;;;16.05;4.07;;;19.70;82.50;;;;;;4945681;28;20062;-62
2021/08/26 05:22:14;;;;;;;18.40;4.28;;;19.70;80.70;;;;;;4960901;28;20566;-63
2021/08/26 05:24:40;;;;;;;19.92;5.00;;;19.60;79.50;;;;;;4960006;28;20058;-63
2021/08/26 05:27:06;;;;;;;18.05;5.05;;;19.50;79.40;;;;;;4960558;28;20038;-63
2021/08/26 05:29:32;;;;;;;16.65;3.80;;;19.40;79.30;;;;;;4960392;28;20446;-63
2021/08/26 05:31:58;;;;;;;15.10;4.53;;;19.30;79.50;;;;;;4960285;28;20125;-63
2021/08/26 05:34:23;;;;;;;20.63;4.93;;;19.20;79.70;;;;;;4955520;28;20094;-62
2021/08/26 05:36:49;;;;;;;14.23;3.63;;;19.10;79.80;;;;;;4941503;29;20493;-63
2021/08/26 05:39:15;;;;;;;16.35;3.88;;;19.00;79.90;;;;;;4942237;28;20423;-63
2021/08/26 05:41:46;;;;;;;22.90;4.93;;;19.00;80.00;;;;;;4940186;29;20038;-63
2021/08/26 05:44:16;;;;;;;13.65;3.92;;;18.90;79.90;;;;;;4940799;29;20106;-63
2021/08/26 05:46:43;;;;;;;19.98;4.15;;;18.90;80.40;;;;;;4939505;29;20047;-63
2021/08/26 05:49:09;;;;;;;19.42;4.70;;;18.90;80.80;;;;;;4941275;29;20117;-63
2021/08/26 05:51:35;;;;;;;16.58;3.78;;;18.90;81.40;;;;;;4940753;28;20126;-63
2021/08/26 05:54:01;;;;;;;21.55;4.28;;;18.90;81.60;;;;;;4940836;28;20039;-63
2021/08/26 05:56:27;;;;;;;17.67;4.63;;;18.80;81.50;;;;;;4941199;29;20052;-63
2021/08/26 05:58:53;;;;;;;20.27;4.55;;;18.90;81.20;;;;;;4941161;29;20499;-64
2021/08/26 06:01:19;;;;;;;15.93;4.13;;;18.90;81.40;;;;;;4941315;29;20043;-63
2021/08/26 06:03:45;;;;;;;23.60;4.78;;;18.90;81.60;;;;;;4940742;29;20071;-63
2021/08/26 06:06:10;;;;;;;19.30;5.10;;;18.90;81.80;;;;;;4940743;29;20040;-63
2021/08/26 06:08:36;;;;;;;17.98;4.75;;;18.90;81.30;;;;;;4940335;29;20058;-64
2021/08/26 06:11:02;;;;;;;19.73;4.53;;;18.90;81.70;;;;;;4944666;28;20154;-64
2021/08/26 06:13:28;;;;;;;18.13;4.50;;;18.90;81.90;;;;;;4946757;29;20039;-64
2021/08/26 06:15:53;;;;;;;20.08;4.28;;;19.00;81.70;;;;;;4947082;29;20066;-65
2021/08/26 06:18:21;;;;;;;16.88;4.95;;;19.00;81.80;;;;;;4947240;29;22295;-69
2021/08/26 06:20:47;;;;;;;18.73;4.57;;;19.20;82.80;;;;;;4945234;29;20412;-69
2021/08/26 06:23:13;;;;;;;21.58;4.70;;;19.40;82.90;;;;;;4945233;28;20055;-70
2021/08/26 06:25:38;;;;;;;14.27;3.90;;;19.60;82.10;;;;;;4947392;28;20039;-69
2021/08/26 06:28:04;;;;;;;20.00;3.67;;;19.90;81.70;;;;;;4948615;29;20129;-69
2021/08/26 06:30:30;;;;;;;20.58;4.32;;;20.10;82.20;;;;;;4945474;28;20051;-69
2021/08/26 06:32:56;;;;;;;24.00;4.18;;;20.40;81.10;;;;;;4946368;29;20865;-69
2021/08/26 06:35:22;;;;;;;20.45;4.22;;;20.60;80.50;;;;;;4945173;28;20070;-69
2021/08/26 06:37:47;;;;;;;16.48;4.68;;;20.80;80.10;;;;;;4949666;29;20051;-69
2021/08/26 06:40:13;;;;;;;19.73;4.40;;;21.10;79.80;;;;;;4942824;28;20048;-69
2021/08/26 06:42:39;;;;;;;15.32;4.30;;;21.20;77.80;;;;;;4947664;28;20075;-69
2021/08/26 06:45:06;;;;;;;19.90;4.90;;;21.30;77.20;;;;;;4948869;29;20617;-69
2021/08/26 06:47:32;;;;;;;17.98;4.55;;;21.40;76.40;;;;;;4917044;29;20082;-65
2021/08/26 06:49:58;;;;;;;17.70;4.78;;;21.40;75.40;;;;;;4944470;29;20071;-65
2021/08/26 06:52:23;;;;;;;30.02;7.43;;;21.50;74.80;;;;;;4944687;29;20047;-66
2021/08/26 06:54:49;;;;;;;34.17;7.00;;;21.60;74.90;;;;;;4934462;29;20114;-69
2021/08/26 06:57:15;;;;;;;22.00;5.97;;;21.70;74.70;;;;;;4948517;28;20047;-69
2021/08/26 06:59:40;;;;;;;31.17;7.43;;;21.80;73.90;;;;;;4931338;29;20043;-70
2021/08/26 07:02:07;;;;;;;20.77;6.03;;;21.80;73.00;;;;;;4929939;29;20089;-70
2021/08/26 07:04:32;;;;;;;19.05;5.95;;;21.70;72.70;;;;;;4948074;28;20070;-69
2021/08/26 07:06:58;;;;;;;19.83;4.90;;;21.70;72.70;;;;;;4943572;28;20067;-70
2021/08/26 07:09:24;;;;;;;23.88;5.20;;;21.60;72.50;;;;;;4949017;29;20115;-70
2021/08/26 07:11:50;;;;;;;21.98;4.93;;;21.60;72.30;;;;;;4947613;28;20415;-70
2021/08/26 07:14:16;;;;;;;22.10;5.72;;;21.60;71.90;;;;;;4960352;28;20051;-70
2021/08/26 07:16:42;;;;;;;19.00;4.65;;;21.60;72.00;;;;;;4950138;28;20089;-70
2021/08/26 07:19:08;;;;;;;21.08;5.75;;;21.50;72.20;;;;;;4945544;29;20270;-71
2021/08/26 07:21:34;;;;;;;27.83;6.40;;;21.50;72.60;;;;;;4945112;28;20043;-70
2021/08/26 07:23:59;;;;;;;22.73;5.55;;;21.40;73.90;;;;;;4946430;29;21640;-70
2021/08/26 07:26:25;;;;;;;24.38;5.60;;;21.50;75.00;;;;;;4945757;29;20047;-70
2021/08/26 07:28:55;;;;;;;22.15;5.50;;;21.50;74.30;;;;;;4946845;29;20109;-69
2021/08/26 07:31:22;;;;;;;23.88;5.03;;;21.40;73.70;;;;;;4947211;28;20506;-69
2021/08/26 07:33:48;;;;;;;51.05;27.67;;;21.30;74.00;;;;;;4942184;29;20051;-69
2021/08/26 07:36:14;;;;;;;35.13;14.95;;;21.20;73.90;;;;;;4931034;29;20086;-68
2021/08/26 07:38:40;;;;;;;30.55;8.95;;;21.20;73.80;;;;;;4947268;29;20051;-68
2021/08/26 07:41:05;;;;;;;28.38;7.78;;;21.20;73.80;;;;;;4946458;29;20042;-64
2021/08/26 07:43:33;;;;;;;25.42;6.00;;;21.20;73.90;;;;;;4939830;29;20443;-65
2021/08/26 07:45:58;;;;;;;20.13;6.28;;;21.30;73.40;;;;;;4943440;29;20039;-64
2021/08/26 07:48:24;;;;;;;22.58;5.43;;;21.50;73.60;;;;;;4929999;29;20047;-64
2021/08/26 07:50:53;;;;;;;31.17;7.22;;;21.70;72.20;;;;;;4944921;28;20081;-64
2021/08/26 07:53:19;;;;;;;30.00;6.82;;;21.70;71.70;;;;;;4945393;29;20048;-65
2021/08/26 07:55:45;;;;;;;20.45;5.07;;;21.80;71.70;;;;;;4924414;29;20054;-64
2021/08/26 07:58:11;;;;;;;19.50;5.10;;;21.90;71.50;;;;;;4945045;29;20508;-63
2021/08/26 08:00:37;;;;;;;24.23;5.18;;;21.90;71.10;;;;;;4924373;29;20102;-64
2021/08/26 08:03:03;;;;;;;22.38;4.80;;;22.10;70.70;;;;;;4944658;29;20166;-62
2021/08/26 08:05:29;;;;;;;20.83;4.55;;;22.30;70.90;;;;;;4944043;29;20551;-62
2021/08/26 08:07:55;;;;;;;21.80;5.32;;;22.50;70.80;;;;;;4941626;28;20040;-64
2021/08/26 08:10:21;;;;;;;17.98;4.97;;;22.70;69.80;;;;;;4944848;29;20485;-65
2021/08/26 08:12:46;;;;;;;26.30;5.70;;;22.80;69.30;;;;;;4943914;29;20145;-66
2021/08/26 08:15:12;;;;;;;23.63;5.65;;;22.80;69.10;;;;;;4943897;29;20063;-65
2021/08/26 08:17:38;;;;;;;26.83;5.80;;;22.80;69.70;;;;;;4941306;29;20043;-67
2021/08/26 08:20:06;;;;;;;26.20;6.15;;;22.60;69.50;;;;;;4946181;29;20149;-68
2021/08/26 08:22:32;;;;;;;25.63;5.75;;;22.60;69.90;;;;;;4956806;28;20047;-70
2021/08/26 08:24:57;;;;;;;22.92;5.50;;;22.50;70.10;;;;;;4946348;28;20049;-70
2021/08/26 08:27:23;;;;;;;24.27;6.22;;;22.50;70.40;;;;;;4928115;29;20054;-68
2021/08/26 08:29:49;;;;;;;17.40;4.38;;;22.40;70.30;;;;;;4940455;29;20067;-71
2021/08/26 08:32:14;;;;;;;16.75;4.30;;;22.30;70.30;;;;;;4940979;29;20032;-70
2021/08/26 08:34:40;;;;;;;14.52;4.63;;;22.20;69.70;;;;;;4955139;28;20051;-72
2021/08/26 08:37:06;;;;;;;15.52;4.50;;;22.00;69.20;;;;;;4940818;29;20075;-68
2021/08/26 08:39:33;;;;;;;18.17;5.30;;;21.80;68.90;;;;;;4940642;29;20089;-70
2021/08/26 08:41:58;;;;;;;16.92;4.35;;;21.70;69.40;;;;;;4939718;29;20058;-68
2021/08/26 08:44:24;;;;;;;19.17;4.25;;;21.60;69.90;;;;;;4924966;29;20411;-67
2021/08/26 08:46:54;;;;;;;18.25;4.45;;;21.50;69.90;;;;;;4939248;29;20039;-68
2021/08/26 08:49:21;;;;;;;14.27;4.03;;;21.50;70.30;;;;;;4943783;29;20047;-66
2021/08/26 08:51:50;;;;;;;15.82;4.50;;;21.50;71.20;;;;;;4945096;29;20049;-66
2021/08/26 08:54:16;;;;;;;17.13;4.75;;;21.50;71.20;;;;;;4939566;29;20082;-68
2021/08/26 08:56:41;;;;;;;17.30;4.10;;;21.50;70.40;;;;;;4928995;29;20043;-67
2021/08/26 08:59:07;;;;;;;15.73;4.10;;;21.40;70.20;;;;;;4946236;28;20051;-66
2021/08/26 09:01:33;;;;;;;18.13;4.22;;;21.50;70.60;;;;;;4945308;29;20047;-66
2021/08/26 09:03:58;;;;;;;20.55;5.68;;;21.70;70.80;;;;;;4945401;29;20098;-71
2021/08/26 09:06:41;;;;;;;15.52;4.10;;;22.00;70.60;;;;;;4944570;29;20062;-71
2021/08/26 09:09:09;;;;;;;16.88;4.40;;;22.20;70.30;;;;;;4954601;28;20047;-69
2021/08/26 09:11:35;;;;;;;15.85;4.45;;;22.40;69.60;;;;;;4943050;29;20102;-71
2021/08/26 09:14:11;;;;;;;13.65;4.75;;;22.40;68.60;;;;;;4938034;28;20365;-70
2021/08/26 09:16:41;;;;;;;20.20;4.80;;;22.50;68.40;;;;;;4940578;29;20084;-72
2021/08/26 09:19:30;;;;;;;17.45;4.38;;;22.60;67.50;;;;;;4942434;29;20042;-71
2021/08/26 09:22:03;;;;;;;21.42;3.95;;;22.70;67.00;;;;;;4936259;28;20051;-66
2021/08/26 09:24:46;;;;;;;18.58;4.03;;;22.60;65.30;;;;;;4940187;28;20110;-67
2021/08/26 09:27:32;;;;;;;19.23;4.70;;;22.60;65.60;;;;;;4944224;29;20047;-63
2021/08/26 09:30:19;;;;;;;16.95;4.32;;;22.50;65.80;;;;;;4938251;28;20039;-66
2021/08/26 09:32:56;;;;;;;15.68;3.75;;;22.50;66.00;;;;;;4955300;28;20043;-65
2021/08/26 09:35:33;;;;;;;16.23;4.18;;;22.40;65.50;;;;;;4924074;29;20135;-65
2021/08/26 09:38:03;;;;;;;20.48;3.88;;;22.30;65.70;;;;;;4938909;29;20083;-66
2021/08/26 09:40:46;;;;;;;17.45;3.72;;;22.20;66.10;;;;;;4943755;29;20134;-63
2021/08/26 09:43:12;;;;;;;;;;;22.10;66.00;;;;;;4938912;29;20138;-63
2021/08/26 09:45:40;;;;;;;14.05;3.22;;;22.00;66.80;;;;;;4954384;28;19993;-63
2021/08/26 09:48:08;;;;;;;18.05;4.13;;;21.70;67.00;;;;;;4938965;29;20411;-63
2021/08/26 09:50:36;;;;;;;19.20;3.65;;;21.60;67.30;;;;;;4939228;28;20046;-63
2021/08/26 09:53:02;;;;;;;16.25;2.63;;;21.40;67.70;;;;;;4940351;29;20058;-63
2021/08/26 09:55:50;;;;;;;13.15;2.53;;;21.30;68.00;;;;;;4939830;29;20126;-63
2021/08/26 09:58:18;;;;;;;8.48;1.50;;;21.40;68.10;;;;;;4924119;29;20392;-62
2021/08/26 10:00:43;;;;;;;7.97;1.50;;;21.50;67.00;;;;;;4939155;29;20044;-63
2021/08/26 10:03:13;;;;;;;7.35;1.13;;;21.70;66.40;;;;;;4943915;29;20176;-63
2021/08/26 10:05:44;;;;;;;3.78;1.10;;;21.80;65.20;;;;;;4939238;29;20062;-69
2021/08/26 10:08:13;;;;;;;9.50;1.15;;;21.90;64.30;;;;;;4924075;29;20458;-69
2021/08/26 10:10:40;;;;;;;4.15;0.70;;;22.10;63.40;;;;;;4944199;29;20043;-70
2021/08/26 10:13:06;;;;;;;6.00;1.05;;;22.20;62.60;;;;;;4955602;28;20393;-68
2021/08/26 10:15:33;;;;;;;7.55;0.82;;;22.10;62.50;;;;;;4926747;29;20393;-68
2021/08/26 10:17:59;;;;;;;3.55;0.63;;;22.10;62.10;;;;;;4939588;29;20055;-69
2021/08/26 10:20:25;;;;;;;4.57;0.65;;;22.10;61.50;;;;;;4954526;28;20047;-67
2021/08/26 10:22:53;;;;;;;8.15;0.73;;;21.80;61.30;;;;;;4943620;29;20093;-68
2021/08/26 10:25:20;;;;;;;4.85;0.80;;;21.80;61.70;;;;;;4960012;28;20388;-68
2021/08/26 10:27:49;;;;;;;5.70;1.13;;;21.90;62.30;;;;;;4928980;29;20047;-68
2021/08/26 10:30:34;;;;;;;4.75;0.55;;;22.20;61.10;;;;;;4940321;28;20040;-69
2021/08/26 10:33:07;;;;;;;3.22;0.57;;;22.30;60.50;;;;;;4938620;29;20154;-69
2021/08/26 10:35:33;;;;;;;5.28;1.23;;;22.20;59.10;;;;;;4942535;29;20055;-69
2021/08/26 10:37:59;;;;;;;4.10;1.00;;;21.90;59.80;;;;;;4938770;29;20079;-69
2021/08/26 10:40:25;;;;;;;7.43;1.60;;;21.80;59.70;;;;;;4939698;28;20053;-69
2021/08/26 10:42:52;;;;;;;9.57;0.95;;;21.70;60.60;;;;;;4938427;29;20047;-70
2021/08/26 10:45:21;;;;;;;7.93;1.25;;;21.70;61.10;;;;;;4939367;29;20130;-69
2021/08/26 10:47:47;;;;;;;6.40;0.98;;;21.80;61.70;;;;;;4938260;29;20194;-69
2021/08/26 10:50:17;;;;;;;6.35;1.40;;;21.90;61.30;;;;;;4943900;29;20193;-69
2021/08/26 10:53:11;;;;;;;7.20;0.93;;;22.00;61.30;;;;;;4938841;29;20036;-66
2021/08/26 10:55:39;;;;;;;;;;;22.10;61.50;;;;;;4936264;28;20172;-70
2021/08/26 10:58:26;;;;;;;7.13;0.82;;;22.00;62.20;;;;;;4948230;28;20013;-68
2021/08/26 11:00:58;;;;;;;7.45;0.80;;;22.10;61.50;;;;;;4948595;29;20046;-69
2021/08/26 11:03:37;;;;;;;6.00;0.97;;;22.20;60.90;;;;;;4946593;29;20083;-68
2021/08/26 11:06:12;;;;;;;6.80;1.02;;;22.10;61.00;;;;;;4946331;28;20049;-67
2021/08/26 11:08:39;;;;;;;6.82;0.88;;;21.90;61.20;;;;;;4947614;29;20043;-69
2021/08/26 11:11:27;;;;;;;6.25;0.70;;;21.80;61.10;;;;;;4942988;28;20051;-70
2021/08/26 11:14:13;;;;;;;8.20;1.23;;;21.80;61.20;;;;;;4942761;29;20121;-70
2021/08/26 11:16:45;;;;;;;5.03;0.80;;;21.60;61.50;;;;;;4930249;29;20056;-72
2021/08/26 11:19:11;;;;;;;;;;;21.60;61.70;;;;;;4945913;29;20047;-71
2021/08/26 11:21:46;;;;;;;8.70;1.35;;;21.40;62.50;;;;;;4947174;29;19929;-72
2021/08/26 11:24:12;;;;;;;9.32;1.10;;;21.40;62.80;;;;;;4942106;29;20043;-71
2021/08/26 11:26:51;;;;;;;7.18;1.10;;;21.40;62.70;;;;;;4941930;29;20043;-72
2021/08/26 11:29:17;;;;;;;7.95;1.35;;;21.40;62.30;;;;;;4941581;28;20058;-72
2021/08/26 11:31:52;;;;;;;8.60;1.00;;;21.20;61.40;;;;;;4945053;28;20039;-72
2021/08/26 11:34:22;;;;;;;7.20;1.23;;;21.10;61.60;;;;;;4941304;29;20499;-72
2021/08/26 11:37:20;;;;;;;5.82;0.80;;;21.10;61.80;;;;;;4942424;29;20051;-72
2021/08/26 11:40:10;;;;;;;9.73;1.05;;;21.00;61.00;;;;;;4942636;29;20510;-72
2021/08/26 11:42:40;;;;;;;6.43;1.27;;;20.80;62.00;;;;;;4940066;29;20071;-70
2021/08/26 11:45:20;;;;;;;14.07;1.90;;;20.70;62.30;;;;;;4931099;29;20419;-70
2021/08/26 11:47:55;;;;;;;7.55;1.20;;;20.70;62.50;;;;;;4945621;29;20507;-70
2021/08/26 11:50:34;;;;;;;7.03;0.90;;;20.70;62.80;;;;;;4945599;28;20087;-71
2021/08/26 11:53:06;;;;;;;7.80;1.17;;;20.70;62.00;;;;;;4942534;29;20130;-72
2021/08/26 11:55:41;;;;;;;3.80;1.02;;;20.70;61.90;;;;;;4944159;29;20060;-72
2021/08/26 11:58:09;;;;;;;8.63;1.00;;;20.70;62.10;;;;;;4942491;29;20055;-72
2021/08/26 12:00:49;;;;;;;5.75;1.00;;;20.70;61.40;;;;;;4942262;29;20694;-72
2021/08/26 12:03:18;;;;;;;9.70;1.35;;;20.70;60.80;;;;;;4930599;29;20054;-72
2021/08/26 12:05:45;;;;;;;8.63;1.17;;;20.70;60.70;;;;;;4957343;28;20039;-71
2021/08/26 12:08:11;;;;;;;5.90;1.13;;;20.70;60.70;;;;;;4940806;28;20598;-71
2021/08/26 12:10:43;;;;;;;7.15;0.80;;;20.70;60.60;;;;;;4955961;28;20066;-72
2021/08/26 12:13:16;;;;;;;5.03;0.70;;;20.80;61.90;;;;;;4941646;29;20051;-71
2021/08/26 12:15:44;;;;;;;10.18;1.27;;;20.80;61.50;;;;;;4940000;29;20039;-71
2021/08/26 12:18:15;;;;;;;8.55;0.70;;;20.80;60.90;;;;;;4955835;28;20130;-71
2021/08/26 12:20:50;;;;;;;9.70;1.48;;;20.70;60.20;;;;;;4927832;29;20546;-72
2021/08/26 12:23:17;;;;;;;6.82;1.05;;;20.60;59.40;;;;;;4930092;29;20059;-70
2021/08/26 12:25:43;;;;;;;3.58;0.63;;;20.50;59.70;;;;;;4945979;29;20069;-70
2021/08/26 12:28:10;;;;;;;6.88;1.08;;;20.40;59.60;;;;;;4944884;29;20492;-69
2021/08/26 12:30:40;;;;;;;8.45;0.95;;;20.30;59.80;;;;;;4943270;29;20035;-68
2021/08/26 12:33:06;;;;;;;5.00;0.88;;;20.30;59.40;;;;;;4945173;29;20078;-70
2021/08/26 12:35:49;;;;;;;7.40;0.80;;;20.20;59.50;;;;;;4944395;29;20106;-71
2021/08/26 12:38:28;;;;;;;4.75;0.75;;;20.20;59.90;;;;;;4945256;29;20206;-70
2021/08/26 12:40:57;;;;;;;6.88;1.00;;;20.20;59.90;;;;;;4941457;28;20047;-71
2021/08/26 12:43:26;;;;;;;5.50;0.70;;;20.10;60.00;;;;;;4941766;29;20490;-71
2021/08/26 12:46:06;;;;;;;5.80;0.88;;;20.10;59.80;;;;;;4940455;29;20122;-71
2021/08/26 12:48:36;;;;;;;7.32;1.15;;;20.10;59.00;;;;;;4941134;29;20047;-68
2021/08/26 12:51:24;;;;;;;9.07;1.00;;;20.10;59.90;;;;;;4939934;29;20039;-70
2021/08/26 12:53:56;;;;;;;5.00;1.02;;;20.30;59.70;;;;;;4940185;29;20051;-70